Time;durP1;ratioP1;P1;durP2;ratioP2;P2;SDS_P1;SDS_P2;PMS_P1;PMS_P2;Temp;Humidity;BMP_temperature;BMP_pressure;BME280_temperature;BME280_humidity;BME280_pressure;Samples;Min_cycle;Max_cycle;Signal;HPM_P1;HPM_P2
2023/10/13 00:01:08;;;;;;;;;;;;;;;-147.89;100.00;60788.38;4230477;28;19981;-64
2023/10/13 00:03:15;;;;;;;;;;;;;;;-147.89;100.00;60788.38;4230555;28;20027;-65
2023/10/13 00:05:17;;;;;;;;;;;;;;;-147.89;100.00;60788.38;4230816;28;19931;-65
2023/10/13 00:07:19;;;;;;;;;;;;;;;-147.89;100.00;60788.38;4233816;28;19951;-65
2023/10/13 00:09:25;;;;;;;;;;;;;;;-147.89;100.00;60788.38;4249217;27;19930;-66
2023/10/13 00:11:27;;;;;;;;;;;;;;;-147.89;100.00;60788.38;4233316;28;19963;-65
2023/10/13 00:13:31;;;;;;;;;;;;;;;-147.89;100.00;60788.38;4233680;28;19934;-64
2023/10/13 00:15:39;;;;;;;;;;;;;;;-147.89;100.00;60788.38;4233497;28;19924;-65
2023/10/13 00:17:41;;;;;;;;;;;;;;;-147.89;100.00;60788.38;4233213;28;19924;-65
2023/10/13 00:19:46;;;;;;;;;;;;;;;-147.89;100.00;60788.38;4233678;28;20006;-65
2023/10/13 00:21:48;;;;;;;;;;;;;;;-147.89;100.00;60788.38;4233302;28;19924;-65
2023/10/13 00:23:53;;;;;;;;;;;;;;;-147.89;100.00;60788.38;4233378;28;20015;-65
2023/10/13 00:25:59;;;;;;;;;;;;;;;-147.89;100.00;60788.38;4232793;28;19924;-64
2023/10/13 00:28:01;;;;;;;;;;;;;;;-147.89;100.00;60788.38;4233274;28;20293;-64
2023/10/13 00:30:22;;;;;;;;;;;;;;;-147.89;100.00;60788.38;4233567;28;19992;-65
2023/10/13 00:32:27;;;;;;;;;;;;;;;-147.89;100.00;60788.38;4233341;28;19924;-64
2023/10/13 00:34:28;;;;;;;;;;;;;;;-147.89;100.00;60788.38;4233307;28;20113;-64
2023/10/13 00:36:31;;;;;;;;;;;;;;;-147.89;100.00;60788.38;4232891;28;20015;-65
2023/10/13 00:38:35;;;;;;;;;;;;;;;-147.89;100.00;60788.38;4233219;28;19924;-65
2023/10/13 00:42:51;;;;;;;;;;;;;;;-147.89;100.00;60788.38;4233182;28;19924;-65
2023/10/13 00:44:54;;;;;;;;;;;;;;;-147.89;100.00;60788.38;4232969;28;19928;-65
2023/10/13 00:46:56;;;;;;;;;;;;;;;-147.89;100.00;60788.38;4232978;28;19971;-65
2023/10/13 00:48:58;;;;;;;;;;;;;;;-147.89;100.00;60788.38;4248644;27;20006;-64
2023/10/13 00:51:12;;;;;;;;;;;;;;;-147.89;100.00;60788.38;4232985;28;19930;-65
2023/10/13 00:53:21;;;;;;;;;;;;;;;-147.89;100.00;60788.38;4232939;28;19955;-64
2023/10/13 00:55:23;;;;;;;;;;;;;;;-147.89;100.00;60788.38;4232518;28;20022;-64
2023/10/13 00:57:33;;;;;;;;;;;;;;;-147.89;100.00;60788.38;4233118;28;20293;-64
2023/10/13 00:59:36;;;;;;;;;;;;;;;-147.89;100.00;60788.38;4232919;28;19923;-65
2023/10/13 01:01:40;;;;;;;;;;;;;;;-147.89;100.00;60788.38;4232883;28;19981;-64
2023/10/13 01:03:48;;;;;;;;;;;;;;;-147.89;100.00;60788.38;4232626;28;19927;-65
2023/10/13 01:05:54;;;;;;;;;;;;;;;-147.89;100.00;60788.38;4214806;28;19940;-65
2023/10/13 01:07:56;;;;;;;;;;;;;;;-147.89;100.00;60788.38;4232743;28;19985;-65
2023/10/13 01:09:57;;;;;;;;;;;;;;;-147.89;100.00;60788.38;4232421;28;20432;-65
2023/10/13 01:12:04;;;;;;;;;;;;;;;-147.89;100.00;60788.38;4232787;28;19924;-65
2023/10/13 01:14:12;;;;;;;;;;;;;;;-147.89;100.00;60788.38;4232597;28;19924;-65
2023/10/13 01:16:23;;;;;;;;;;;;;;;-147.89;100.00;60788.38;4232667;28;20037;-65
2023/10/13 01:18:28;;;;;;;;;;;;;;;-147.89;100.00;60788.38;4231747;28;20003;-65
2023/10/13 01:20:30;;;;;;;;;;;;;;;-147.89;100.00;60788.38;4232640;28;20397;-65
2023/10/13 01:22:32;;;;;;;;;;;;;;;-147.89;100.00;60788.38;4232482;28;19924;-64
2023/10/13 01:24:38;;;;;;;;;;;;;;;-147.89;100.00;60788.38;4231918;28;19998;-64
2023/10/13 01:26:51;;;;;;;;;;;;;;;-147.89;100.00;60788.38;4232326;28;19983;-64
2023/10/13 01:28:58;;;;;;;;;;;;;;;-147.89;100.00;60788.38;4232565;28;20350;-65
2023/10/13 01:31:01;;;;;;;;;;;;;;;-147.89;100.00;60788.38;4248306;27;20339;-65
2023/10/13 01:33:03;;;;;;;;;;;;;;;-147.89;100.00;60788.38;4232041;28;19923;-65
2023/10/13 01:35:06;;;;;;;;;;;;;;;-147.89;100.00;60788.38;4232238;28;19923;-65
2023/10/13 01:37:10;;;;;;;;;;;;;;;-147.89;100.00;60788.38;4232436;28;20127;-64
2023/10/13 01:39:16;;;;;;;;;;;;;;;-147.89;100.00;60788.38;4231937;28;19946;-65
2023/10/13 01:41:18;;;;;;;;;;;;;;;-147.89;100.00;60788.38;4232320;28;20393;-65
2023/10/13 01:43:20;;;;;;;;;;;;;;;-147.89;100.00;60788.38;4232216;28;19938;-64
2023/10/13 01:45:26;;;;;;;;;;;;;;;-147.89;100.00;60788.38;4232357;28;19924;-64
2023/10/13 01:47:28;;;;;;;;;;;;;;;-147.89;100.00;60788.38;4231926;28;20022;-65
2023/10/13 01:49:41;;;;;;;;;;;;;;;-147.89;100.00;60788.38;4232201;28;19924;-64
2023/10/13 01:51:47;;;;;;;;;;;;;;;-147.89;100.00;60788.38;4232007;28;19924;-64
2023/10/13 01:53:56;;;;;;;;;;;;;;;-147.89;100.00;60788.38;4231659;28;19931;-64
2023/10/13 01:55:58;;;;;;;;;;;;;;;-147.89;100.00;60788.38;4232000;28;19927;-64
2023/10/13 01:57:59;;;;;;;;;;;;;;;-147.89;100.00;60788.38;4231729;28;19923;-64
2023/10/13 02:00:10;;;;;;;;;;;;;;;-147.89;100.00;60788.38;4231846;28;20014;-64
2023/10/13 02:02:12;;;;;;;;;;;;;;;-147.89;100.00;60788.38;4246355;27;19923;-67
2023/10/13 02:04:14;;;;;;;;;;;;;;;-147.89;100.00;60788.38;4231977;28;19977;-66
2023/10/13 02:06:23;;;;;;;;;;;;;;;-147.89;100.00;60788.38;4231972;28;19931;-66
2023/10/13 02:08:26;;;;;;;;;;;;;;;-147.89;100.00;60788.38;4231562;28;19930;-66
2023/10/13 02:10:30;;;;;;;;;;;;;;;-147.89;100.00;60788.38;4231739;28;19928;-66
2023/10/13 02:12:43;;;;;;;;;;;;;;;-147.89;100.00;60788.38;4231711;28;19962;-66
2023/10/13 02:14:45;;;;;;;;;;;;;;;-147.89;100.00;60788.38;4231692;28;19977;-64
2023/10/13 02:16:47;;;;;;;;;;;;;;;-147.89;100.00;60788.38;4231536;28;20022;-66
2023/10/13 02:18:51;;;;;;;;;;;;;;;-147.89;100.00;60788.38;4231663;28;20381;-64
2023/10/13 02:20:56;;;;;;;;;;;;;;;-147.89;100.00;60788.38;4231653;28;19923;-67
2023/10/13 02:22:59;;;;;;;;;;;;;;;-147.89;100.00;60788.38;4231206;28;20329;-66
2023/10/13 02:25:05;;;;;;;;;;;;;;;-147.89;100.00;60788.38;4231202;28;20385;-66
2023/10/13 02:27:13;;;;;;;;;;;;;;;-147.89;100.00;60788.38;4231347;28;19924;-67
2023/10/13 02:29:17;;;;;;;;;;;;;;;-147.89;100.00;60788.38;4230306;28;19928;-66
2023/10/13 02:31:24;;;;;;;;;;;;;;;-147.89;100.00;60788.38;4231613;28;19966;-64
2023/10/13 02:33:32;;;;;;;;;;;;;;;-147.89;100.00;60788.38;4231318;28;20438;-65
2023/10/13 02:35:36;;;;;;;;;;;;;;;-147.89;100.00;60788.38;4231263;28;20377;-64
2023/10/13 02:37:38;;;;;;;;;;;;;;;-147.89;100.00;60788.38;4231117;28;19924;-65
2023/10/13 02:39:44;;;;;;;;;;;;;;;-147.89;100.00;60788.38;4231197;28;19923;-64
2023/10/13 02:41:48;;;;;;;;;;;;;;;-147.89;100.00;60788.38;4231211;28;20450;-64
2023/10/13 02:43:50;;;;;;;;;;;;;;;-147.89;100.00;60788.38;4231265;28;19972;-64
2023/10/13 02:45:57;;;;;;;;;;;;;;;-147.89;100.00;60788.38;4231115;28;19924;-64
2023/10/13 02:48:17;;;;;;;;;;;;;;;-147.89;100.00;60788.38;4231188;28;20296;-64
2023/10/13 02:50:24;;;;;;;;;;;;;;;-147.89;100.00;60788.38;4230844;28;20389;-65
2023/10/13 02:52:26;;;;;;;;;;;;;;;-147.89;100.00;60788.38;4231126;28;20015;-64
2023/10/13 02:54:31;;;;;;;;;;;;;;;-147.89;100.00;60788.38;4230988;28;19923;-64
2023/10/13 02:56:32;;;;;;;;;;;;;;;-147.89;100.00;60788.38;4230810;28;20389;-64
2023/10/13 02:58:43;;;;;;;;;;;;;;;-147.89;100.00;60788.38;4230902;28;19969;-64
2023/10/13 03:00:46;;;;;;;;;;;;;;;-147.89;100.00;60788.38;4231125;28;19923;-66
2023/10/13 03:02:58;;;;;;;;;;;;;;;-147.89;100.00;60788.38;4231058;28;19930;-66
2023/10/13 03:04:59;;;;;;;;;;;;;;;-147.89;100.00;60788.38;4230502;28;19927;-66
2023/10/13 03:07:02;;;;;;;;;;;;;;;-147.89;100.00;60788.38;4230816;28;19924;-66
2023/10/13 03:09:18;;;;;;;;;;;;;;;-147.89;100.00;60788.38;4230980;28;19983;-66
2023/10/13 03:11:24;;;;;;;;;;;;;;;-147.89;100.00;60788.38;4230764;28;19928;-66
2023/10/13 03:13:26;;;;;;;;;;;;;;;-147.89;100.00;60788.38;4230876;28;19931;-66
2023/10/13 03:15:30;;;;;;;;;;;;;;;-147.89;100.00;60788.38;4230902;28;19924;-66
2023/10/13 03:17:35;;;;;;;;;;;;;;;-147.89;100.00;60788.38;4230542;28;19923;-65
2023/10/13 03:19:38;;;;;;;;;;;;;;;-147.89;100.00;60788.38;4230617;28;19924;-66
2023/10/13 03:21:44;;;;;;;;;;;;;;;-147.89;100.00;60788.38;4230481;28;20022;-66
2023/10/13 03:23:46;;;;;;;;;;;;;;;-147.89;100.00;60788.38;4230596;28;20308;-65
2023/10/13 03:25:50;;;;;;;;;;;;;;;-147.89;100.00;60788.38;4230487;28;19931;-65
2023/10/13 03:29:56;;;;;;;;;;;;;;;-147.89;100.00;60788.38;4230695;28;19930;-66
2023/10/13 03:32:06;;;;;;;;;;;;;;;-147.89;100.00;60788.38;4230428;28;19966;-65
2023/10/13 03:34:12;;;;;;;;;;;;;;;-147.89;100.00;60788.38;4230261;28;19931;-66
2023/10/13 03:36:56;;;;;;;;;;;;;;;-147.89;100.00;60788.38;4230630;28;19924;-66
2023/10/13 03:38:36;;;;;;;;;;;;;;;-147.89;100.00;60788.38;4230483;28;20396;-66
2023/10/13 03:40:39;;;;;;;;;;;;;;;-147.89;100.00;60788.38;4231566;28;19924;-66
2023/10/13 03:42:41;;;;;;;;;;;;;;;-147.89;100.00;60788.38;4249874;27;19931;-66
2023/10/13 03:44:46;;;;;;;;;;;;;;;-147.89;100.00;60788.38;4215871;28;20399;-66
2023/10/13 03:46:48;;;;;;;;;;;;;;;-147.89;100.00;60788.38;4233830;28;19923;-66
2023/10/13 03:48:54;;;;;;;;;;;;;;;-147.89;100.00;60788.38;4233718;28;20034;-66
2023/10/13 03:51:03;;;;;;;;;;;;;;;-147.89;100.00;60788.38;4234051;28;20011;-66
2023/10/13 03:53:06;;;;;;;;;;;;;;;-147.89;100.00;60788.38;4234027;28;19984;-65
2023/10/13 03:55:16;;;;;;;;;;;;;;;-147.89;100.00;60788.38;4233758;28;19924;-66
2023/10/13 03:57:18;;;;;;;;;;;;;;;-147.89;100.00;60788.38;4233827;28;19924;-65
2023/10/13 03:59:20;;;;;;;;;;;;;;;-147.89;100.00;60788.38;4233799;28;19927;-65
2023/10/13 04:01:31;;;;;;;;;;;;;;;-147.89;100.00;60788.38;4234004;28;19924;-64
2023/10/13 04:03:35;;;;;;;;;;;;;;;-147.89;100.00;60788.38;4233774;28;20006;-66
2023/10/13 04:08:44;;;;;;;;;;;;;;;-147.89;100.00;60788.38;4233671;28;20376;-66
2023/10/13 04:17:13;;;;;;;;;;;;;;;-147.89;100.00;60788.38;4185397;28;20031;-66
2023/10/13 04:19:22;;;;;;;;;;;;;;;-147.89;100.00;60788.38;4181439;28;19928;-66
2023/10/13 04:21:39;;;;;;;;;;;;;;;-147.89;100.00;60788.38;4181457;28;20295;-66
2023/10/13 04:26:21;;;;;;;;;;;;;;;-147.89;100.00;60788.38;4197691;28;19963;-64
2023/10/13 04:28:37;;;;;;;;;;;;;;;-147.89;100.00;60788.38;4197831;28;19948;-64
2023/10/13 04:30:59;;;;;;;;;;;;;;;-147.89;100.00;60788.38;4197880;28;19959;-65
2023/10/13 04:33:17;;;;;;;;;;;;;;;-147.89;100.00;60788.38;4197216;28;20295;-65
2023/10/13 04:35:19;;;;;;;;;;;;;;;-147.89;100.00;60788.38;4197781;28;20034;-68
2023/10/13 04:37:29;;;;;;;;;;;;;;;-147.89;100.00;60788.38;4197370;28;19935;-66
2023/10/13 04:39:35;;;;;;;;;;;;;;;-147.89;100.00;60788.38;4197595;28;19924;-65
2023/10/13 04:43:56;;;;;;;;;;;;;;;-147.89;100.00;60788.38;4197332;28;19956;-65
2023/10/13 04:46:14;;;;;;;;;;;;;;;-147.89;100.00;60788.38;4197458;28;19924;-65
2023/10/13 04:50:34;;;;;;;;;;;;;;;-147.89;100.00;60788.38;4197578;28;20298;-66
2023/10/13 04:53:01;;;;;;;;;;;;;;;-147.89;100.00;60788.38;4214579;28;19924;-65
2023/10/13 04:55:17;;;;;;;;;;;;;;;-147.89;100.00;60788.38;4216048;28;19974;-66
2023/10/13 04:57:34;;;;;;;;;;;;;;;-147.89;100.00;60788.38;4215983;28;19928;-66
2023/10/13 04:59:37;;;;;;;;;;;;;;;-147.89;100.00;60788.38;4215934;28;19924;-65
2023/10/13 05:01:49;;;;;;;;;;;;;;;-147.89;100.00;60788.38;4215735;28;20023;-66
2023/10/13 05:04:21;;;;;;;;;;;;;;;-147.89;100.00;60788.38;4216037;28;20400;-65
2023/10/13 05:50:57;;;;;;;;;;;;;;;-147.89;100.00;60788.38;4231923;28;19923;-66
2023/10/13 06:30:07;;;;;;;;;;;;;;;-147.89;100.00;60788.38;4195814;28;19966;-64
2023/10/13 06:32:12;;;;;;;;;;;;;;;-147.89;100.00;60788.38;4195786;28;19928;-64
2023/10/13 06:34:15;;;;;;;;;;;;;;;-147.89;100.00;60788.38;4195653;28;19924;-65
2023/10/13 06:36:17;;;;;;;;;;;;;;;-147.89;100.00;60788.38;4195526;28;19924;-65
2023/10/13 06:38:21;;;;;;;;;;;;;;;-147.89;100.00;60788.38;4195547;28;19974;-66
2023/10/13 06:40:25;;;;;;;;;;;;;;;-147.89;100.00;60788.38;4195704;28;19924;-65
2023/10/13 06:42:28;;;;;;;;;;;;;;;-147.89;100.00;60788.38;4195269;28;19928;-65
2023/10/13 06:44:32;;;;;;;;;;;;;;;-147.89;100.00;60788.38;4195623;28;19925;-64
2023/10/13 06:46:34;;;;;;;;;;;;;;;-147.89;100.00;60788.38;4195480;28;20018;-65
2023/10/13 06:48:40;;;;;;;;;;;;;;;-147.89;100.00;60788.38;4209309;28;19935;-65
2023/10/13 06:50:48;;;;;;;;;;;;;;;-147.89;100.00;60788.38;4231068;28;19928;-65
2023/10/13 06:52:50;;;;;;;;;;;;;;;-147.89;100.00;60788.38;4231131;28;19999;-66
2023/10/13 06:54:53;;;;;;;;;;;;;;;-147.89;100.00;60788.38;4230807;28;19931;-66
2023/10/13 06:56:54;;;;;;;;;;;;;;;-147.89;100.00;60788.38;4230522;28;19939;-66
2023/10/13 06:58:59;;;;;;;;;;;;;;;-147.89;100.00;60788.38;4230766;28;20002;-65
2023/10/13 07:01:06;;;;;;;;;;;;;;;-147.89;100.00;60788.38;4230973;28;20010;-66
2023/10/13 07:03:17;;;;;;;;;;;;;;;-147.89;100.00;60788.38;4230709;28;19927;-66
2023/10/13 07:05:19;;;;;;;;;;;;;;;-147.89;100.00;60788.38;4231048;28;20408;-66
2023/10/13 07:07:22;;;;;;;;;;;;;;;-147.89;100.00;60788.38;4230762;28;19942;-65
2023/10/13 07:11:39;;;;;;;;;;;;;;;-147.89;100.00;60788.38;4230307;28;19945;-65
2023/10/13 07:13:49;;;;;;;;;;;;;;;-147.89;100.00;60788.38;4230784;28;20348;-65
2023/10/13 07:15:52;;;;;;;;;;;;;;;-147.89;100.00;60788.38;4230275;28;20369;-65
2023/10/13 07:17:59;;;;;;;;;;;;;;;-147.89;100.00;60788.38;4230401;28;19993;-66
2023/10/13 07:20:14;;;;;;;;;;;;;;;-147.89;100.00;60788.38;4230864;28;19977;-65
2023/10/13 07:22:19;;;;;;;;;;;;;;;-147.89;100.00;60788.38;4212556;28;19947;-66
2023/10/13 07:24:22;;;;;;;;;;;;;;;-147.89;100.00;60788.38;4230262;28;19924;-66
2023/10/13 07:26:23;;;;;;;;;;;;;;;-147.89;100.00;60788.38;4230372;28;19950;-65
2023/10/13 07:28:25;;;;;;;;;;;;;;;-147.89;100.00;60788.38;4230681;28;19923;-65
2023/10/13 07:30:27;;;;;;;;;;;;;;;-147.89;100.00;60788.38;4230797;28;20010;-65
2023/10/13 07:32:33;;;;;;;;;;;;;;;-147.89;100.00;60788.38;4230912;28;19938;-66
2023/10/13 07:34:35;;;;;;;;;;;;;;;-147.89;100.00;60788.38;4230677;28;19951;-65
2023/10/13 07:36:43;;;;;;;;;;;;;;;-147.89;100.00;60788.38;4230390;28;19947;-66
2023/10/13 07:39:09;;;;;;;;;;;;;;;-147.89;100.00;60788.38;4230283;28;20022;-63
2023/10/13 07:41:32;;;;;;;;;;;;;;;-147.89;100.00;60788.38;4230121;28;19969;-65
2023/10/13 07:43:34;;;;;;;;;;;;;;;-147.89;100.00;60788.38;4230371;28;19924;-65
2023/10/13 07:45:40;;;;;;;;;;;;;;;-147.89;100.00;60788.38;4230584;28;19924;-65
2023/10/13 07:47:42;;;;;;;;;;;;;;;-147.89;100.00;60788.38;4230366;28;19973;-65
2023/10/13 07:49:43;;;;;;;;;;;;;;;-147.89;100.00;60788.38;4230307;28;19924;-64
2023/10/13 07:51:49;;;;;;;;;;;;;;;-147.89;100.00;60788.38;4230221;28;19928;-65
2023/10/13 07:53:52;;;;;;;;;;;;;;;-147.89;100.00;60788.38;4230715;28;19924;-65
2023/10/13 07:56:02;;;;;;;;;;;;;;;-147.89;100.00;60788.38;4230000;28;20368;-65
2023/10/13 07:58:07;;;;;;;;;;;;;;;-147.89;100.00;60788.38;4230267;28;19924;-65
2023/10/13 08:00:11;;;;;;;;;;;;;;;-147.89;100.00;60788.38;4230135;28;19924;-66
2023/10/13 08:02:15;;;;;;;;;;;;;;;-147.89;100.00;60788.38;4230353;28;20452;-65
2023/10/13 08:04:28;;;;;;;;;;;;;;;-147.89;100.00;60788.38;4230343;28;19930;-65
2023/10/13 08:06:30;;;;;;;;;;;;;;;-147.89;100.00;60788.38;4230323;28;19955;-65
2023/10/13 08:08:37;;;;;;;;;;;;;;;-147.89;100.00;60788.38;4230296;28;20397;-65
2023/10/13 08:10:41;;;;;;;;;;;;;;;-147.89;100.00;60788.38;4230108;28;20099;-65
2023/10/13 08:12:44;;;;;;;;;;;;;;;-147.89;100.00;60788.38;4245982;28;19924;-65
2023/10/13 08:14:45;;;;;;;;;;;;;;;-147.89;100.00;60788.38;4230447;28;20434;-64
2023/10/13 08:18:49;;;;;;;;;;;;;;;-147.89;100.00;60788.38;4230029;28;19970;-64
2023/10/13 08:20:52;;;;;;;;;;;;;;;-147.89;100.00;60788.38;4212314;28;20011;-65
2023/10/13 08:23:13;;;;;;;;;;;;;;;-147.89;100.00;60788.38;4230247;28;19971;-65
2023/10/13 08:25:24;;;;;;;;;;;;;;;-147.89;100.00;60788.38;4230099;28;20381;-65
2023/10/13 08:27:34;;;;;;;;;;;;;;;-147.89;100.00;60788.38;4232412;28;19924;-65
2023/10/13 08:32:14;;;;;;;;;;;;;;;-147.89;100.00;60788.38;4233246;28;19977;-65
2023/10/13 08:34:23;;;;;;;;;;;;;;;-147.89;100.00;60788.38;4233449;28;19924;-67
2023/10/13 08:36:27;;;;;;;;;;;;;;;-147.89;100.00;60788.38;4233467;28;19930;-65
2023/10/13 08:38:29;;;;;;;;;;;;;;;-147.89;100.00;60788.38;4248537;27;19975;-64
2023/10/13 08:43:08;;;;;;;;;;;;;;;-147.89;100.00;60788.38;4233221;28;19928;-65
2023/10/13 08:47:35;;;;;;;;;;;;;;;-147.89;100.00;60788.38;4233246;28;20007;-64
2023/10/13 08:49:40;;;;;;;;;;;;;;;-147.89;100.00;60788.38;4233053;28;20420;-65
2023/10/13 08:51:48;;;;;;;;;;;;;;;-147.89;100.00;60788.38;4233019;28;19923;-64
2023/10/13 08:53:58;;;;;;;;;;;;;;;-147.89;100.00;60788.38;4232863;28;19951;-65
2023/10/13 08:58:13;;;;;;;;;;;;;;;-147.89;100.00;60788.38;4233392;28;19923;-64
2023/10/13 09:00:55;;;;;;;;;;;;;;;-147.89;100.00;60788.38;4232984;28;19950;-64
2023/10/13 09:05:41;;;;;;;;;;;;;;;-147.89;100.00;60788.38;4232859;28;19924;-64
2023/10/13 09:07:35;;;;;;;;;;;;;;;-147.89;100.00;60788.38;4232119;28;20454;-65
2023/10/13 09:12:09;;;;;;;;;;;;;;;-147.89;100.00;60788.38;4232932;28;19928;-65
2023/10/13 09:14:32;;;;;;;;;;;;;;;-147.89;100.00;60788.38;4233098;28;19924;-64
2023/10/13 09:18:46;;;;;;;;;;;;;;;-147.89;100.00;60788.38;4215777;28;20438;-64
2023/10/13 09:21:02;;;;;;;;;;;;;;;-147.89;100.00;60788.38;4215694;28;20368;-64
2023/10/13 09:23:08;;;;;;;;;;;;;;;-147.89;100.00;60788.38;4215443;28;19993;-64
2023/10/13 09:25:13;;;;;;;;;;;;;;;-147.89;100.00;60788.38;4215211;28;20321;-65
2023/10/13 09:27:15;;;;;;;;;;;;;;;-147.89;100.00;60788.38;4215856;28;19924;-65
2023/10/13 09:29:18;;;;;;;;;;;;;;;-147.89;100.00;60788.38;4215552;28;20313;-64
2023/10/13 09:31:26;;;;;;;;;;;;;;;-147.89;100.00;60788.38;4215249;28;19962;-65
2023/10/13 09:33:50;;;;;;;;;;;;;;;-147.89;100.00;60788.38;4215628;28;19928;-64
2023/10/13 09:35:50;;;;;;;;;;;;;;;-147.89;100.00;60788.38;4215441;28;20278;-64
2023/10/13 09:37:56;;;;;;;;;;;;;;;-147.89;100.00;60788.38;4214658;28;19963;-65
2023/10/13 09:40:05;;;;;;;;;;;;;;;-147.89;100.00;60788.38;4214956;28;19998;-64
2023/10/13 09:42:10;;;;;;;;;;;;;;;-147.89;100.00;60788.38;4215290;28;19947;-64
2023/10/13 09:44:12;;;;;;;;;;;;;;;-147.89;100.00;60788.38;4214942;28;20393;-65
2023/10/13 09:46:18;;;;;;;;;;;;;;;-147.89;100.00;60788.38;4215110;28;19928;-67
2023/10/13 09:48:26;;;;;;;;;;;;;;;-147.89;100.00;60788.38;4214818;28;20292;-66
2023/10/13 09:50:33;;;;;;;;;;;;;;;-147.89;100.00;60788.38;4215014;28;19928;-66
2023/10/13 09:52:37;;;;;;;;;;;;;;;-147.89;100.00;60788.38;4215141;28;19924;-64
2023/10/13 09:54:44;;;;;;;;;;;;;;;-147.89;100.00;60788.38;4214960;28;19939;-63
2023/10/13 09:56:55;;;;;;;;;;;;;;;-147.89;100.00;60788.38;4214734;28;19924;-66
2023/10/13 09:59:08;;;;;;;;;;;;;;;-147.89;100.00;60788.38;4214823;28;20024;-64
2023/10/13 10:01:10;;;;;;;;;;;;;;;-147.89;100.00;60788.38;4197110;28;20415;-65
2023/10/13 10:03:29;;;;;;;;;;;;;;;-147.89;100.00;60788.38;4214885;28;19932;-67
2023/10/13 10:05:34;;;;;;;;;;;;;;;-147.89;100.00;60788.38;4214650;28;19955;-67
2023/10/13 10:07:36;;;;;;;;;;;;;;;-147.89;100.00;60788.38;4214796;28;19924;-64
2023/10/13 10:09:38;;;;;;;;;;;;;;;-147.89;100.00;60788.38;4215001;28;19928;-63
2023/10/13 10:11:45;;;;;;;;;;;;;;;-147.89;100.00;60788.38;4215008;28;20393;-65
2023/10/13 10:14:04;;;;;;;;;;;;;;;-147.89;100.00;60788.38;4214895;28;20001;-65
2023/10/13 10:16:14;;;;;;;;;;;;;;;-147.89;100.00;60788.38;4214643;28;19924;-64
2023/10/13 10:18:21;;;;;;;;;;;;;;;-147.89;100.00;60788.38;4228817;28;20069;-65
2023/10/13 10:20:42;;;;;;;;;;;;;;;-147.89;100.00;60788.38;4231347;28;19928;-65
2023/10/13 10:22:49;;;;;;;;;;;;;;;-147.89;100.00;60788.38;4231562;28;20294;-64
2023/10/13 10:25:01;;;;;;;;;;;;;;;-147.89;100.00;60788.38;4231226;28;19923;-64
2023/10/13 10:27:04;;;;;;;;;;;;;;;-147.89;100.00;60788.38;4231485;28;19988;-65
2023/10/13 10:29:14;;;;;;;;;;;;;;;-147.89;100.00;60788.38;4231502;28;19939;-65
2023/10/13 10:31:17;;;;;;;;;;;;;;;-147.89;100.00;60788.38;4231437;28;19957;-66
2023/10/13 10:33:33;;;;;;;;;;;;;;;-147.89;100.00;60788.38;4231333;28;20328;-65
2023/10/13 10:35:35;;;;;;;;;;;;;;;-147.89;100.00;60788.38;4231011;28;19924;-65
2023/10/13 10:37:39;;;;;;;;;;;;;;;-147.89;100.00;60788.38;4231361;28;19927;-64
2023/10/13 10:39:48;;;;;;;;;;;;;;;-147.89;100.00;60788.38;4231244;28;19927;-64
2023/10/13 10:41:52;;;;;;;;;;;;;;;-147.89;100.00;60788.38;4231182;28;19946;-65
2023/10/13 10:43:53;;;;;;;;;;;;;;;-147.89;100.00;60788.38;4231334;28;19932;-63
2023/10/13 10:45:59;;;;;;;;;;;;;;;-147.89;100.00;60788.38;4231217;28;19985;-63
2023/10/13 10:48:16;;;;;;;;;;;;;;;-147.89;100.00;60788.38;4230843;28;19992;-64
2023/10/13 10:50:31;;;;;;;;;;;;;;;-147.89;100.00;60788.38;4229662;28;20024;-64
2023/10/13 10:52:37;;;;;;;;;;;;;;;-147.89;100.00;60788.38;4231099;28;19932;-64
2023/10/13 10:54:43;;;;;;;;;;;;;;;-147.89;100.00;60788.38;4246748;27;19923;-64
2023/10/13 10:56:52;;;;;;;;;;;;;;;-147.89;100.00;60788.38;4230898;28;19928;-64
2023/10/13 10:58:55;;;;;;;;;;;;;;;-147.89;100.00;60788.38;4212765;28;19950;-65
2023/10/13 11:01:19;;;;;;;;;;;;;;;-147.89;100.00;60788.38;4228273;28;19924;-68
2023/10/13 11:03:22;;;;;;;;;;;;;;;-147.89;100.00;60788.38;4230594;28;19963;-63
2023/10/13 11:05:32;;;;;;;;;;;;;;;-147.89;100.00;60788.38;4230892;28;19934;-64
2023/10/13 11:07:35;;;;;;;;;;;;;;;-147.89;100.00;60788.38;4231039;28;19927;-66
2023/10/13 11:09:37;;;;;;;;;;;;;;;-147.89;100.00;60788.38;4227435;28;20282;-63
2023/10/13 11:11:43;;;;;;;;;;;;;;;-147.89;100.00;60788.38;4230892;28;19924;-62
2023/10/13 11:13:50;;;;;;;;;;;;;;;-147.89;100.00;60788.38;4230895;28;19931;-61
2023/10/13 11:15:56;;;;;;;;;;;;;;;-147.89;100.00;60788.38;4230981;28;20502;-61
2023/10/13 11:17:58;;;;;;;;;;;;;;;-147.89;100.00;60788.38;4211878;28;20350;-57
2023/10/13 11:20:15;;;;;;;;;;;;;;;-147.89;100.00;60788.38;4226581;28;19923;-60
2023/10/13 11:22:35;;;;;;;;;;;;;;;-147.89;100.00;60788.38;4228809;28;20029;-59
2023/10/13 11:24:42;;;;;;;;;;;;;;;-147.89;100.00;60788.38;4226698;28;20351;-64
2023/10/13 11:26:50;;;;;;;;;;;;;;;-147.89;100.00;60788.38;4218273;28;20018;-62
2023/10/13 11:28:51;;;;;;;;;;;;;;;-147.89;100.00;60788.38;4228161;28;20358;-63
2023/10/13 11:30:58;;;;;;;;;;;;;;;-147.89;100.00;60788.38;4222808;28;19931;-58
2023/10/13 11:33:05;;;;;;;;;;;;;;;-147.89;100.00;60788.38;4229389;28;19976;-58
2023/10/13 11:35:20;;;;;;;;;;;;;;;-147.89;100.00;60788.38;4230009;28;19931;-59
2023/10/13 11:37:38;;;;;;;;;;;;;;;-147.89;100.00;60788.38;4226946;28;20018;-60
2023/10/13 11:39:42;;;;;;;;;;;;;;;-147.89;100.00;60788.38;4227199;28;19928;-60
2023/10/13 11:42:03;;;;;;;;;;;;;;;-147.89;100.00;60788.38;4229004;28;19932;-58
2023/10/13 11:48:54;;;;;;;;;;;;;;;-147.89;100.00;60788.38;4157967;28;19925;-59
2023/10/13 11:50:55;;;;;;;;;;;;;;;-147.89;100.00;60788.38;4155120;28;19937;-63
2023/10/13 11:53:07;;;;;;;;;;;;;;;-147.89;100.00;60788.38;4160110;28;19959;-66
2023/10/13 11:55:14;;;;;;;;;;;;;;;-147.89;100.00;60788.38;4159024;28;19933;-62
2023/10/13 11:57:19;;;;;;;;;;;;;;;-147.89;100.00;60788.38;4160530;28;19925;-60
2023/10/13 11:59:27;;;;;;;;;;;;;;;-147.89;100.00;60788.38;4159397;28;19925;-64
2023/10/13 12:08:49;;;;;;;;;;;;;;;-147.89;100.00;60788.38;4158176;28;19934;-62
2023/10/13 12:10:59;;;;;;;;;;;;;;;-147.89;100.00;60788.38;4161595;28;19987;-68
2023/10/13 12:13:10;;;;;;;;;;;;;;;-147.89;100.00;60788.38;4159591;28;19929;-61
2023/10/13 12:15:25;;;;;;;;;;;;;;;-147.89;100.00;60788.38;4161253;28;20024;-62
2023/10/13 12:17:31;;;;;;;;;;;;;;;-147.89;100.00;60788.38;4154391;28;19928;-58
2023/10/13 12:19:34;;;;;;;;;;;;;;;-147.89;100.00;60788.38;4163223;28;19980;-59
2023/10/13 12:21:37;;;;;;;;;;;;;;;-147.89;100.00;60788.38;4163497;28;19925;-57
2023/10/13 12:23:39;;;;;;;;;;;;;;;-147.89;100.00;60788.38;4147220;28;19925;-59
2023/10/13 12:28:21;;;;;;;;;;;;;;;-147.89;100.00;60788.38;4227296;28;19924;-57
2023/10/13 12:30:36;;;;;;;;;;;;;;;-147.89;100.00;60788.38;4231650;28;20335;-62
2023/10/13 12:32:44;;;;;;;;;;;;;;;-147.89;100.00;60788.38;4232379;28;20369;-58
2023/10/13 12:37:24;;;;;;;;;;;;;;;-147.89;100.00;60788.38;4221798;28;20352;-58
2023/10/13 12:48:59;;;;;;;;;;;;;;;-147.89;100.00;60788.38;4215281;28;19935;-58
2023/10/13 12:53:21;;;;;;;;;;;;;;;-147.89;100.00;60788.38;4231770;28;20326;-55
2023/10/13 12:55:24;;;;;;;;;;;;;;;-147.89;100.00;60788.38;4231979;28;19924;-56
2023/10/13 12:57:27;;;;;;;;;;;;;;;-147.89;100.00;60788.38;4232185;28;19928;-57
2023/10/13 12:59:29;;;;;;;;;;;;;;;-147.89;100.00;60788.38;4231938;28;19976;-57
2023/10/13 13:01:34;;;;;;;;;;;;;;;-147.89;100.00;60788.38;4231819;28;19931;-60
2023/10/13 13:03:35;;;;;;;;;;;;;;;-147.89;100.00;60788.38;4231988;28;19924;-56
2023/10/13 13:05:44;;;;;;;;;;;;;;;-147.89;100.00;60788.38;4231609;28;20254;-56
2023/10/13 13:07:52;;;;;;;;;;;;;;;-147.89;100.00;60788.38;4232048;28;19924;-56